createdAt,value
2022-09-22T00:01:54.000Z,13.07
2022-09-22T00:04:20.612Z,9.97
2022-09-22T00:06:50.570Z,10.73
2022-09-22T00:09:24.563Z,7.40
2022-09-22T00:11:53.278Z,9.13
2022-09-22T00:14:23.739Z,6.93
2022-09-22T00:16:57.160Z,6.17
2022-09-22T00:19:28.039Z,11.83
2022-09-22T00:21:56.255Z,7.97
2022-09-22T00:24:25.237Z,7.63
2022-09-22T00:26:54.490Z,12.13
2022-09-22T00:29:22.387Z,9.87
2022-09-22T00:31:49.897Z,6.40
2022-09-22T00:34:19.229Z,5.97
2022-09-22T00:36:47.439Z,7.03
2022-09-22T00:39:15.787Z,10.00
2022-09-22T00:41:45.102Z,9.10
2022-09-22T00:44:33.291Z,8.90
2022-09-22T00:47:05.081Z,5.73
2022-09-22T00:49:42.441Z,5.27
2022-09-22T00:52:10.597Z,10.07
2022-09-22T00:54:38.633Z,5.60
2022-09-22T00:57:11.591Z,10.73
2022-09-22T00:59:44.253Z,7.37
2022-09-22T01:02:11.024Z,5.90
2022-09-22T01:04:38.073Z,6.57
2022-09-22T01:07:05.642Z,11.73
2022-09-22T01:09:32.570Z,8.33
2022-09-22T01:11:59.979Z,6.20
2022-09-22T01:14:49.735Z,5.80
2022-09-22T01:17:23.726Z,5.40
2022-09-22T01:20:15.119Z,5.37
2022-09-22T01:23:11.752Z,6.13
2022-09-22T01:26:00.133Z,4.57
2022-09-22T01:28:50.602Z,5.60
2022-09-22T01:31:22.630Z,7.03
2022-09-22T01:33:53.386Z,4.03
2022-09-22T01:36:27.370Z,10.00
2022-09-22T01:39:01.996Z,5.07
2022-09-22T01:41:47.058Z,3.37
2022-09-22T01:44:20.074Z,6.13
2022-09-22T01:46:54.570Z,10.23
2022-09-22T01:49:23.371Z,8.50
2022-09-22T01:51:53.765Z,8.43
2022-09-22T01:54:26.775Z,5.97
2022-09-22T01:56:58.146Z,7.73
2022-09-22T01:59:29.203Z,8.60
2022-09-22T02:02:02.011Z,6.97
2022-09-22T02:04:35.633Z,5.83
2022-09-22T02:07:07.506Z,6.40
2022-09-22T02:09:35.528Z,7.87
2022-09-22T02:12:03.435Z,5.57
2022-09-22T02:14:30.602Z,6.60
2022-09-22T02:16:59.900Z,5.43
2022-09-22T02:19:30.500Z,10.03
2022-09-22T02:21:57.852Z,5.73
2022-09-22T02:24:32.127Z,8.77
2022-09-22T02:27:01.802Z,6.33
2022-09-22T02:29:32.006Z,6.40
2022-09-22T02:32:03.889Z,16.57
2022-09-22T02:34:31.134Z,5.93
2022-09-22T02:37:06.243Z,12.63
2022-09-22T02:39:39.574Z,12.00
2022-09-22T02:42:19.761Z,13.73
2022-09-22T02:44:51.184Z,10.60
2022-09-22T02:47:23.906Z,7.97
2022-09-22T02:49:51.041Z,11.50
2022-09-22T02:52:20.524Z,12.40
2022-09-22T02:54:47.041Z,8.37
2022-09-22T02:57:13.609Z,19.40
2022-09-22T02:59:40.186Z,7.70
2022-09-22T03:02:06.758Z,12.53
2022-09-22T03:04:34.032Z,9.13
2022-09-22T03:07:00.648Z,9.77
2022-09-22T03:09:27.212Z,7.73
2022-09-22T03:11:53.763Z,9.30
2022-09-22T03:14:20.283Z,6.30
2022-09-22T03:16:46.841Z,9.70
2022-09-22T03:19:13.349Z,11.13
2022-09-22T03:21:40.575Z,8.73
2022-09-22T03:24:07.259Z,15.63
2022-09-22T03:26:34.395Z,6.80
2022-09-22T03:29:01.068Z,12.00
2022-09-22T03:31:27.669Z,8.43
2022-09-22T03:33:54.201Z,8.77
2022-09-22T03:36:21.035Z,12.57
2022-09-22T03:38:51.530Z,5.87
2022-09-22T03:41:18.166Z,6.50
2022-09-22T03:43:44.832Z,15.73
2022-09-22T03:46:13.243Z,11.60
2022-09-22T03:48:44.809Z,8.90
2022-09-22T03:51:11.938Z,10.97
2022-09-22T03:53:38.507Z,12.17
2022-09-22T03:56:07.337Z,13.70
2022-09-22T03:58:34.097Z,11.60
2022-09-22T04:01:00.981Z,9.00
2022-09-22T04:03:28.375Z,6.47
2022-09-22T04:05:55.301Z,16.13
2022-09-22T04:08:21.911Z,10.53
2022-09-22T04:10:48.542Z,13.07
2022-09-22T04:13:15.841Z,12.17
2022-09-22T04:15:42.612Z,14.30
2022-09-22T04:18:09.587Z,8.63
2022-09-22T04:20:37.808Z,18.00
2022-09-22T04:23:35.600Z,11.87
2022-09-22T04:29:50.760Z,18.47
2022-09-22T04:32:18.184Z,10.17
2022-09-22T04:34:44.847Z,12.77
2022-09-22T04:37:13.486Z,8.47
2022-09-22T04:39:40.137Z,18.40
2022-09-22T04:42:08.255Z,11.90
2022-09-22T04:44:35.502Z,10.30
2022-09-22T04:47:02.887Z,16.00
2022-09-22T04:49:29.516Z,7.27
2022-09-22T04:51:56.060Z,9.30
2022-09-22T04:54:22.712Z,10.23
2022-09-22T04:56:49.237Z,7.83
2022-09-22T04:59:15.784Z,12.07
2022-09-22T05:01:42.450Z,11.07
2022-09-22T05:04:09.868Z,13.20
2022-09-22T05:06:36.540Z,13.50
2022-09-22T05:09:03.365Z,17.73
2022-09-22T05:11:30.618Z,11.33
2022-09-22T05:13:58.052Z,16.93
2022-09-22T05:16:25.242Z,14.73
2022-09-22T05:18:51.986Z,11.80
2022-09-22T05:21:19.378Z,10.87
2022-09-22T05:23:46.730Z,12.27
2022-09-22T05:26:13.774Z,9.80
2022-09-22T05:28:40.450Z,9.70
2022-09-22T05:31:07.085Z,9.17
2022-09-22T05:33:33.697Z,10.23
2022-09-22T05:36:00.508Z,9.27
2022-09-22T05:38:28.169Z,11.60
2022-09-22T05:40:54.788Z,8.03
2022-09-22T05:43:21.423Z,10.83
2022-09-22T05:45:49.348Z,13.33
2022-09-22T05:48:16.012Z,11.40
2022-09-22T05:50:44.550Z,13.80
2022-09-22T05:53:11.999Z,14.67
2022-09-22T05:55:40.717Z,12.63
2022-09-22T05:58:11.017Z,11.33
2022-09-22T06:00:38.063Z,13.67
2022-09-22T06:03:05.088Z,15.97
2022-09-22T06:05:32.289Z,10.57
2022-09-22T06:08:02.574Z,12.43
2022-09-22T06:10:30.586Z,16.53
2022-09-22T06:13:01.552Z,9.70
2022-09-22T06:15:28.827Z,10.10
2022-09-22T06:17:55.695Z,17.67
2022-09-22T06:20:23.249Z,14.73
2022-09-22T06:22:50.164Z,13.93
2022-09-22T06:25:17.006Z,15.87
2022-09-22T06:31:31.673Z,13.73
2022-09-22T06:33:58.284Z,10.23
2022-09-22T06:36:29.667Z,23.53
2022-09-22T06:38:57.908Z,23.93
2022-09-22T06:41:24.928Z,41.13
2022-09-22T06:43:55.241Z,19.30
2022-09-22T06:46:22.711Z,20.93
2022-09-22T06:48:50.658Z,17.53
2022-09-22T06:51:17.801Z,9.57
2022-09-22T06:53:46.632Z,25.13
2022-09-22T06:56:19.032Z,11.33
2022-09-22T06:59:08.368Z,8.10
2022-09-22T07:01:32.996Z,15.80
2022-09-22T07:04:00.600Z,11.97
2022-09-22T07:06:27.181Z,4.60
2022-09-22T07:08:54.569Z,4.53
2022-09-22T07:11:22.861Z,4.97
2022-09-22T07:13:52.360Z,9.07
2022-09-22T07:16:21.418Z,10.00
2022-09-22T07:18:49.873Z,4.73
2022-09-22T07:21:20.539Z,7.37
2022-09-22T07:23:49.227Z,4.60
2022-09-22T07:26:17.656Z,4.10
2022-09-22T07:28:46.164Z,7.53
2022-09-22T07:31:14.671Z,14.63
2022-09-22T07:33:43.387Z,11.13
2022-09-22T07:36:13.612Z,8.27
2022-09-22T07:38:42.783Z,11.27
2022-09-22T07:41:11.643Z,5.67
2022-09-22T07:43:39.062Z,4.10
2022-09-22T07:46:06.424Z,8.70
2022-09-22T07:48:42.113Z,10.70
2022-09-22T07:51:17.660Z,8.67
2022-09-22T07:53:46.238Z,7.73
2022-09-22T07:56:14.996Z,4.73
2022-09-22T07:58:47.569Z,4.30
2022-09-22T08:01:19.723Z,4.63
2022-09-22T08:03:46.531Z,4.70
2022-09-22T08:06:16.030Z,6.60
2022-09-22T08:08:47.664Z,5.10
2022-09-22T08:11:16.608Z,15.27
2022-09-22T08:13:48.581Z,3.83
2022-09-22T08:16:16.961Z,4.47
2022-09-22T08:18:44.424Z,6.93
2022-09-22T08:21:12.567Z,8.50
2022-09-22T08:23:39.134Z,4.77
2022-09-22T08:26:08.122Z,5.27
2022-09-22T08:28:35.819Z,19.90
2022-09-22T08:31:03.333Z,4.10
2022-09-22T08:33:30.936Z,10.10
2022-09-22T08:36:02.529Z,9.60
2022-09-22T08:38:31.443Z,10.00
2022-09-22T08:44:40.973Z,1.20
2022-09-22T08:47:16.381Z,12.23
2022-09-22T08:50:04.886Z,2.97
2022-09-22T08:52:38.106Z,3.67
2022-09-22T08:55:08.795Z,2.33
2022-09-22T08:57:56.092Z,4.53
2022-09-22T09:00:24.837Z,4.13
2022-09-22T09:03:04.745Z,6.53
2022-09-22T09:06:03.651Z,2.60
2022-09-22T09:09:00.130Z,2.10
2022-09-22T09:11:46.567Z,2.40
2022-09-22T09:14:23.139Z,6.00
2022-09-22T09:16:55.683Z,5.37
2022-09-22T09:19:33.007Z,1.93
2022-09-22T09:22:05.080Z,2.67
2022-09-22T09:27:25.542Z,2.97
2022-09-22T09:29:59.613Z,2.43
2022-09-22T09:32:33.790Z,2.37
2022-09-22T09:37:35.368Z,5.67
2022-09-22T09:40:04.624Z,6.50
2022-09-22T09:42:34.585Z,2.73
2022-09-22T09:45:02.435Z,3.43
2022-09-22T09:47:46.841Z,7.50
2022-09-22T09:50:14.748Z,2.33
2022-09-22T09:52:41.638Z,1.90
2022-09-22T09:55:19.520Z,4.90
2022-09-22T09:58:08.430Z,12.13
2022-09-22T10:00:52.708Z,7.07
2022-09-22T10:03:27.014Z,3.73
2022-09-22T10:06:06.579Z,4.87
2022-09-22T10:08:42.779Z,4.20
2022-09-22T10:11:11.831Z,1.57
2022-09-22T10:13:40.219Z,2.27
2022-09-22T10:16:21.397Z,4.73
2022-09-22T10:18:54.870Z,2.30
2022-09-22T10:21:23.261Z,2.97
2022-09-22T10:23:51.419Z,4.33
2022-09-22T10:26:25.544Z,8.63
2022-09-22T10:29:17.455Z,6.50
2022-09-22T10:32:06.778Z,4.80
2022-09-22T10:34:35.906Z,5.53
2022-09-22T10:37:09.837Z,3.80
2022-09-22T10:39:45.338Z,4.27
2022-09-22T10:42:25.379Z,3.67
2022-09-22T10:44:52.889Z,2.50
2022-09-22T10:47:30.375Z,7.20
2022-09-22T10:50:41.867Z,7.37
2022-09-22T10:53:31.940Z,2.90
2022-09-22T10:56:07.576Z,3.10
2022-09-22T10:59:01.579Z,2.90
2022-09-22T11:01:45.684Z,5.67
2022-09-22T11:04:31.647Z,2.10
2022-09-22T11:07:41.877Z,2.07
2022-09-22T11:10:51.703Z,2.67
2022-09-22T11:13:33.819Z,2.10
2022-09-22T11:16:19.100Z,1.13
2022-09-22T11:19:13.361Z,3.47
2022-09-22T11:21:56.485Z,2.77
2022-09-22T11:24:39.435Z,2.07
2022-09-22T11:27:15.186Z,3.93
2022-09-22T11:29:55.537Z,1.50
2022-09-22T11:32:41.809Z,1.40
2022-09-22T11:35:33.993Z,6.73
2022-09-22T11:38:17.359Z,0.87
2022-09-22T11:41:15.553Z,2.23
2022-09-22T11:43:59.213Z,4.47
2022-09-22T11:46:37.120Z,0.73
2022-09-22T11:49:15.603Z,1.53
2022-09-22T11:51:56.262Z,1.23
2022-09-22T11:54:46.276Z,1.93
2022-09-22T11:57:17.162Z,2.90
2022-09-22T11:59:51.609Z,4.40
2022-09-22T12:02:24.869Z,1.53
2022-09-22T12:04:57.606Z,2.10
2022-09-22T12:07:27.930Z,4.10
2022-09-22T12:09:59.160Z,1.87
2022-09-22T12:12:27.816Z,5.57
2022-09-22T12:15:01.476Z,1.37
2022-09-22T12:17:36.351Z,4.20
2022-09-22T12:20:14.718Z,4.20
2022-09-22T12:23:09.534Z,1.53
2022-09-22T12:25:49.266Z,1.53
2022-09-22T12:28:18.527Z,1.93
2022-09-22T12:30:58.820Z,3.03
2022-09-22T12:33:26.703Z,6.07
2022-09-22T12:35:54.846Z,1.43
2022-09-22T12:38:22.486Z,4.63
2022-09-22T12:40:51.034Z,1.87
2022-09-22T12:43:21.115Z,3.17
2022-09-22T12:45:50.191Z,1.43
2022-09-22T12:48:21.582Z,1.93
2022-09-22T12:50:49.317Z,1.70
2022-09-22T12:53:27.756Z,9.17
2022-09-22T12:55:55.047Z,3.67
2022-09-22T12:58:41.897Z,3.88
2022-09-22T13:01:41.665Z,3.10
2022-09-22T13:04:17.792Z,6.77
2022-09-22T13:06:59.975Z,3.22
2022-09-22T13:09:29.415Z,1.83
2022-09-22T13:12:24.648Z,1.10
2022-09-22T13:15:15.575Z,1.60
2022-09-22T13:17:43.426Z,0.97
2022-09-22T13:20:23.260Z,3.70
2022-09-22T13:22:51.821Z,1.13
2022-09-22T13:25:23.662Z,3.58
2022-09-22T13:28:03.682Z,3.70
2022-09-22T13:30:31.505Z,2.85
2022-09-22T13:32:58.843Z,1.52
2022-09-22T13:35:28.011Z,1.25
2022-09-22T13:37:57.360Z,2.80
2022-09-22T13:40:27.307Z,1.02
2022-09-22T13:42:57.140Z,2.88
2022-09-22T13:45:26.743Z,1.38
2022-09-22T13:47:57.071Z,1.90
2022-09-22T13:50:24.469Z,5.50
2022-09-22T13:52:53.254Z,3.78
2022-09-22T13:55:24.548Z,7.10
2022-09-22T13:57:52.715Z,11.18
2022-09-22T14:00:23.947Z,1.42
2022-09-22T14:02:51.194Z,7.43
2022-09-22T14:05:20.879Z,2.95
2022-09-22T14:08:07.774Z,2.05
2022-09-22T14:10:36.102Z,3.97
2022-09-22T14:13:02.705Z,3.60
2022-09-22T14:15:33.281Z,0.77
2022-09-22T14:18:01.248Z,1.13
2022-09-22T14:20:28.203Z,2.38
2022-09-22T14:22:54.816Z,3.95
2022-09-22T14:25:22.360Z,5.97
2022-09-22T14:27:54.539Z,3.83
2022-09-22T14:30:28.429Z,1.13
2022-09-22T14:32:58.889Z,0.67
2022-09-22T14:35:28.682Z,2.47
2022-09-22T14:38:01.240Z,3.30
2022-09-22T14:40:30.677Z,3.27
2022-09-22T14:43:02.607Z,2.53
2022-09-22T14:45:31.161Z,2.83
2022-09-22T14:48:16.872Z,0.87
2022-09-22T14:50:46.837Z,4.37
2022-09-22T14:53:19.435Z,1.77
2022-09-22T14:55:48.273Z,2.10
2022-09-22T14:58:17.935Z,2.40
2022-09-22T15:01:11.383Z,1.83
2022-09-22T15:03:39.362Z,4.90
2022-09-22T15:06:09.046Z,7.40
2022-09-22T15:08:36.409Z,4.30
2022-09-22T15:11:03.206Z,6.70
2022-09-22T15:13:42.111Z,5.93
2022-09-22T15:16:39.956Z,8.60
2022-09-22T15:19:11.064Z,8.23
2022-09-22T15:25:18.408Z,11.73
2022-09-22T15:31:35.884Z,12.10
2022-09-22T15:34:02.583Z,10.33
2022-09-22T15:36:32.137Z,8.73
2022-09-22T15:39:00.770Z,8.40
2022-09-22T15:41:27.428Z,12.93
2022-09-22T15:43:54.326Z,11.30
2022-09-22T15:46:30.779Z,13.90
2022-09-22T15:49:03.418Z,7.97
2022-09-22T15:51:32.169Z,9.27
2022-09-22T15:53:58.817Z,18.93
2022-09-22T15:56:28.854Z,10.13
2022-09-22T15:58:58.246Z,9.00
2022-09-22T16:01:26.221Z,11.50
2022-09-22T16:03:53.655Z,10.87
2022-09-22T16:06:21.210Z,14.50
2022-09-22T16:08:50.957Z,12.27
2022-09-22T16:11:22.564Z,14.43
2022-09-22T16:13:49.319Z,19.90
2022-09-22T16:16:17.536Z,12.50
2022-09-22T16:18:47.048Z,13.63
2022-09-22T16:21:19.764Z,12.13
2022-09-22T16:23:46.974Z,9.93
2022-09-22T16:26:13.747Z,11.40
2022-09-22T16:28:40.624Z,21.50
2022-09-22T16:31:08.225Z,18.80
2022-09-22T16:33:35.068Z,13.87
2022-09-22T16:36:02.781Z,13.83
2022-09-22T16:38:29.441Z,11.73
2022-09-22T16:41:01.047Z,14.53
2022-09-22T16:43:29.797Z,15.13
2022-09-22T16:46:14.981Z,12.47
2022-09-22T16:48:41.717Z,10.10
2022-09-22T16:51:09.142Z,7.13
2022-09-22T16:53:35.840Z,7.20
2022-09-22T16:56:04.873Z,8.60
2022-09-22T16:58:33.716Z,18.47
2022-09-22T17:01:03.540Z,9.93
2022-09-22T17:03:30.848Z,17.73
2022-09-22T17:06:06.054Z,26.03
2022-09-22T17:08:36.926Z,10.23
2022-09-22T17:11:04.971Z,26.33
2022-09-22T17:13:32.953Z,19.17
2022-09-22T17:16:09.527Z,10.13
2022-09-22T17:18:39.476Z,6.67
2022-09-22T17:21:07.357Z,5.23
2022-09-22T17:24:00.115Z,6.03
2022-09-22T17:26:28.660Z,5.50
2022-09-22T17:28:55.273Z,9.83
2022-09-22T17:31:22.880Z,6.40
2022-09-22T17:34:01.949Z,8.23
2022-09-22T17:36:32.903Z,8.37
2022-09-22T17:39:00.766Z,9.43
2022-09-22T17:41:30.861Z,7.70
2022-09-22T17:43:58.138Z,8.07
2022-09-22T17:46:26.184Z,9.77
2022-09-22T17:49:11.488Z,8.00
2022-09-22T17:51:57.971Z,6.37
2022-09-22T17:54:44.593Z,10.70
2022-09-22T17:57:13.872Z,16.27
2022-09-22T17:59:40.784Z,14.03
2022-09-22T18:02:10.363Z,14.37
2022-09-22T18:04:37.516Z,15.90
2022-09-22T18:07:06.162Z,11.97
2022-09-22T18:09:33.534Z,11.10
2022-09-22T18:12:43.281Z,20.97
2022-09-22T18:15:12.557Z,19.83
2022-09-22T18:17:41.342Z,9.20
2022-09-22T18:20:10.807Z,18.80
2022-09-22T18:22:39.208Z,14.43
2022-09-22T18:25:08.228Z,13.87
2022-09-22T18:27:34.879Z,20.17
2022-09-22T18:30:04.299Z,19.03
2022-09-22T18:32:32.255Z,20.13
2022-09-22T18:34:58.944Z,14.67
2022-09-22T18:37:26.146Z,23.07
2022-09-22T18:39:52.926Z,17.63
2022-09-22T18:42:22.266Z,14.27
2022-09-22T18:44:49.272Z,14.63
2022-09-22T18:47:17.965Z,12.97
2022-09-22T18:49:47.431Z,12.50
2022-09-22T18:52:15.470Z,13.80
2022-09-22T18:54:43.319Z,16.33
2022-09-22T18:57:11.634Z,30.47
2022-09-22T19:03:48.542Z,13.73
2022-09-22T19:06:15.952Z,14.63
2022-09-22T19:08:42.594Z,10.10
2022-09-22T19:11:10.537Z,16.07
2022-09-22T19:13:39.826Z,13.27
2022-09-22T19:16:09.415Z,25.00
2022-09-22T19:18:36.563Z,23.27
2022-09-22T19:21:06.443Z,20.27
2022-09-22T19:23:33.860Z,25.40
2022-09-22T19:26:00.675Z,25.27
2022-09-22T19:28:27.415Z,21.13
2022-09-22T19:30:54.959Z,25.20
2022-09-22T19:33:21.849Z,27.27
2022-09-22T19:35:49.106Z,21.83
2022-09-22T19:38:17.230Z,25.20
2022-09-22T19:40:45.636Z,28.20
2022-09-22T19:43:14.507Z,28.27
2022-09-22T19:45:42.160Z,29.57
2022-09-22T19:48:09.525Z,21.73
2022-09-22T19:50:36.465Z,24.80
2022-09-22T19:53:03.188Z,32.03
2022-09-22T19:55:30.115Z,24.07
2022-09-22T19:57:57.627Z,21.77
2022-09-22T20:00:25.387Z,25.50
2022-09-22T20:02:57.457Z,23.60
2022-09-22T20:05:26.611Z,22.33
2022-09-22T20:07:55.362Z,36.30
2022-09-22T20:10:22.621Z,25.00
2022-09-22T20:12:49.744Z,24.30
2022-09-22T20:15:19.267Z,24.50
2022-09-22T20:17:51.105Z,29.10
2022-09-22T20:20:24.965Z,27.33
2022-09-22T20:23:01.728Z,32.47
2022-09-22T20:25:31.029Z,22.97
2022-09-22T20:28:00.022Z,22.20
2022-09-22T20:30:27.451Z,23.23
2022-09-22T20:32:56.136Z,32.47
2022-09-22T20:35:29.992Z,32.83
2022-09-22T20:37:58.816Z,32.97
2022-09-22T20:40:26.344Z,26.27
2022-09-22T20:42:54.030Z,27.00
2022-09-22T20:45:22.225Z,25.57
2022-09-22T20:47:49.616Z,26.53
2022-09-22T20:50:16.445Z,28.97
2022-09-22T20:52:43.083Z,18.30
2022-09-22T20:55:11.297Z,25.57
2022-09-22T20:57:38.281Z,36.57
2022-09-22T21:00:05.665Z,31.83
2022-09-22T21:02:32.862Z,28.07
2022-09-22T21:05:00.641Z,30.00
2022-09-22T21:07:27.321Z,24.80
2022-09-22T21:10:15.089Z,25.53
2022-09-22T21:12:45.904Z,24.53
2022-09-22T21:16:03.250Z,29.33
2022-09-22T21:18:33.986Z,29.00
2022-09-22T21:21:02.062Z,23.80
2022-09-22T21:23:28.639Z,32.50
2022-09-22T21:25:56.210Z,21.17
2022-09-22T21:28:23.276Z,29.23
2022-09-22T21:30:55.555Z,24.90
2022-09-22T21:33:22.904Z,26.20
2022-09-22T21:36:02.264Z,23.10
2022-09-22T21:38:30.362Z,22.03
2022-09-22T21:40:58.732Z,24.20
2022-09-22T21:43:25.827Z,30.37
2022-09-22T21:45:59.113Z,27.33
2022-09-22T21:48:33.578Z,22.43
2022-09-22T21:51:03.339Z,28.80
2022-09-22T21:53:30.855Z,33.40
2022-09-22T21:55:59.243Z,27.70
2022-09-22T21:58:26.716Z,24.80
2022-09-22T22:00:53.313Z,24.87
2022-09-22T22:03:31.960Z,27.47
2022-09-22T22:06:07.946Z,25.80
2022-09-22T22:08:38.454Z,24.40
2022-09-22T22:11:08.141Z,32.53
2022-09-22T22:13:36.427Z,22.07
2022-09-22T22:16:07.205Z,27.40
2022-09-22T22:18:34.866Z,22.77
2022-09-22T22:21:04.790Z,20.90
2022-09-22T22:23:34.162Z,25.53
2022-09-22T22:26:06.716Z,21.93
2022-09-22T22:28:34.351Z,23.00
2022-09-22T22:31:05.853Z,19.10
2022-09-22T22:33:34.323Z,26.60
2022-09-22T22:36:02.241Z,21.20
2022-09-22T22:38:30.291Z,18.07
2022-09-22T22:41:01.332Z,17.43
2022-09-22T22:43:28.587Z,31.03
2022-09-22T22:45:55.494Z,16.90
2022-09-22T22:48:24.298Z,23.83
2022-09-22T22:50:50.915Z,21.80
2022-09-22T22:53:18.828Z,22.93
2022-09-22T22:55:56.753Z,25.10
2022-09-22T22:58:24.835Z,16.67
2022-09-22T23:01:00.386Z,23.10
2022-09-22T23:03:27.464Z,15.60
2022-09-22T23:05:58.429Z,23.90
2022-09-22T23:08:26.138Z,15.97
2022-09-22T23:10:58.976Z,20.00
2022-09-22T23:13:28.961Z,14.47
2022-09-22T23:16:02.810Z,19.33
2022-09-22T23:18:30.720Z,14.53
2022-09-22T23:20:57.256Z,14.03
2022-09-22T23:23:23.807Z,21.87
2022-09-22T23:25:51.311Z,15.17
2022-09-22T23:28:17.836Z,16.87
2022-09-22T23:30:44.941Z,21.70
2022-09-22T23:33:11.576Z,20.83
2022-09-22T23:35:39.377Z,20.60
2022-09-22T23:38:08.941Z,16.30
2022-09-22T23:40:35.909Z,17.87
2022-09-22T23:43:03.540Z,14.07
2022-09-22T23:45:30.058Z,16.20
2022-09-22T23:47:56.564Z,15.47
2022-09-22T23:50:23.099Z,17.37
2022-09-22T23:52:50.183Z,15.67
2022-09-22T23:55:18.347Z,20.87
2022-09-22T23:57:44.938Z,18.77
